Paradise, Montana
Current Conditions -  °F | °C
As of 8:53 PM on Wednesday 22 Oct 2014 (Local Time) from KMLP Reporting Station
Broken Clouds Broken Clouds  
Wind Chill:   Ceiling: 4000
Heat Index:   Visibility: 10mi
Dew Point:   Wind: 13mph
Humidity: 68%   Direction: 170°S
Pressure: 29.88"   Gusts: 23mph
Location:  47.39°N, 114.8°W
Report Text: KMLP 230253Z AUTO 17011G20KT 110V200 10SM BKN040 BKN048 BKN065 06/01 A2988 RMK AO2 SLP075 T00610006 56013
Loading
Personal Weather Stations






























Interactive Weather Map
Tropical Storm Tracking
New forecast layout! Learn more

10-Day Weather Forecast

Advertisements
Track Severe Weather on mobile